메인 페이지
METAR-TAF:

METAR-TAF

공항 :

Gulfport, 미시시피, 미국

위도: 30-24-43N, 경도: 089-04-51W, 고도: 8m

현재 날씨관측

예보는 24분 전, 11:37시(UTC)에 발표되었습니다.
무풍
온도 22°C
습도 94%
기압 1017 hPa
시정: 1.2km
고도 200ft 상공 흐림
박무

METAR: KGPT 201137Z 00000KT 3/4SM BR OVC002 22/21 A3004 RMK AO2 T02170211 RVRNO

시각: 07:01 (12:01 UTC)

예보

예보는 41분 전, 11:20시(UTC)에 발표되었습니다.
예보 대상 시간: 20일 12시부터 21일 12시까지 (UTC)
여러 방향의 바람 3kt
시정: 0.4km
고도 200ft 상공 흐림
안개
20일 1400시부터 (UTC)
4kt
시정: 3.2km
고도 1500ft 상공 구름 보통
고도 3500ft 상공 구름 많음
박무
20일 1500시부터 (UTC)
4kt
시정: 10km
고도 3500ft 상공 구름 보통
고도 10000ft 상공 구름 많음
20일 2000시부터 (UTC)
북서8kt
시정: 10km
고도 4000ft 상공 구름 보통
고도 8000ft 상공 구름 많음
확률 30%
20일 21시부터 20일 24시까지 (UTC)
시정: 6.4km
고도 4000ft 상공 흐림
21일 0000시부터 (UTC)
10kt
시정: 10km
고도 3500ft 상공 흐림
21일 0400시부터 (UTC)
14kt, 순간 최대 풍속 25kt
시정: 10km
고도 5000ft 상공 구름 많음

TAF: KGPT 201120Z 2012/2112 VRB03KT 1/4SM FG OVC002 FM201400 28004KT 2SM BR SCT015 BKN035 FM201500 28004KT P6SM SCT035 BKN100 FM202000 31008KT P6SM SCT040 BKN080 PROB30 2021/2024 4SM RA OVC040 FM210000 36010KT P6SM OVC035 FM210400 01014G25KT P6SM BKN050

4,000개 이상의 공항 관측 자료 및 예보 (METAR 및 TAF 보고).

지도상에서 검색 가능한 기상관측소가 노란 점과 빨간 점으로 표시되어 있습니다.

기상관측소 명을 보려면 표시 위로 마우스를 이동하세요.

날씨 관측과 예보를 보려면 클릭하세요.

지도 변경 : 확대하려면 엑스 표시가 있는 녹색 버튼, 축소하려면 빼기 표시가 있는 녹색 버튼, 다음 페이지의 지도를 보려면 녹색 화살표를 클릭하세요.


METAR-TAF: